Terminal Aerodrome Forecast
Issued by NWS

Home | Current Version | Previous Version | Text Only | Print | Product List | Glossary Off
Versions: 1 2 3 4 5 6 7 8 9 10 11 12 13 14 15 16 17 18 19 20

000
FTUS43 KMPX 311740
TAFRWF
TAF
KRWF 311740Z 3118/0118 19018G26KT P6SM FEW250
     FM010000 19008KT P6SM SCT120 BKN200
     FM010900 20005KT 6SM BR BKN250
     FM011500 17004KT P6SM SCT250=

USA.gov is the U.S. government's official web portal to all federal, state and local government web resources and services.